• Join FlightAware (Why Join?)
  • Login
  • US Flag 
02:48AM EDT


 

Airport Tracker/Info


-or-


 

Live Flight TrackerFlight Track Log ✈ N339KC ✈ 26-Dec-2013 ✈ KCID - KHDN

Flight Track Log - Related Links

Times and Time Zones

All times are in EST time to prevent confusion due to time zone crossing. See the N339KC flight status page for this flight to view local times or setup timezone preferences in your user account.

Time Position Orientation Groundspeed Altitude Reporting Facility
EST Latitude Longitude Course Direction KTS MPH feet Rate Location/Type
12:33PM 41.8866 -92.0167 279° West  Level Estimated
12:34PM 41.8832 -92.1480 281° West  Level Estimated
12:35PM 41.9174 -92.2712 290° West  Level FlightAware Approximate
12:35PM 41.9428 -92.2489 290° West 311 358 18,400  Level FlightAware ADS-B
12:36PM 41.9439 -92.3133 271° West 311 358 19,500 2,280 Climbing FlightAware ADS-B
12:37PM 41.9454 -92.4221 271° West 308 354 22,000 2,460 Climbing FlightAware ADS-B
12:38PM 41.9468 -92.5342 271° West 301 346 24,400 2,640 Climbing FlightAware ADS-B
12:39PM 41.9487 -92.7072 271° West 294 338 28,600 2,340 Climbing FlightAware ADS-B
12:41PM 41.9506 -92.9091 271° West 278 320 33,100 1,500 Climbing FlightAware ADS-B
12:43PM 41.9516 -93.0707 271° West 277 319 34,000 600 Climbing FlightAware ADS-B
12:44PM 41.9525 -93.2199 270° West 337 388 34,700 780 Climbing FlightAware ADS-B
12:45PM 41.9532 -93.3547 270° West 340 391 36,000 960 Climbing FlightAware ADS-B
12:46PM 41.9536 -93.4932 270° West 342 394 36,900 960 Climbing FlightAware ADS-B
12:48PM 41.9541 -93.6811 270° West 341 392 38,300 960 Climbing FlightAware ADS-B
12:48PM 41.9542 -93.7609 270° West 336 387 38,900 840 Climbing FlightAware ADS-B
12:50PM 41.9541 -93.9269 270° West 338 389 40,000 120 Climbing FlightAware ADS-B
12:55PM 41.9515 -94.6209 270° West 386 444 40,000  Level FlightAware ADS-B
12:55PM 41.9506 -94.7420 269° West 387 445 40,000  Level FlightAware ADS-B
12:56PM 41.9498 -94.8399 269° West 387 445 40,000  Level FlightAware ADS-B
12:57PM 41.9491 -94.9286 269° West 388 447 40,000  Level FlightAware ADS-B
12:57PM 41.9481 -95.0222 269° West 388 447 40,000  Level FlightAware ADS-B
12:58PM 41.9470 -95.1226 269° West 384 442 40,000  Level FlightAware ADS-B
12:59PM 41.9460 -95.2163 269° West 381 438 40,000  Level FlightAware ADS-B
12:59PM 41.9459 -95.2196 269° West 381 438 40,000  Level FlightAware ADS-B
12:59PM 41.9447 -95.3164 269° West 379 436 40,000  Level FlightAware ADS-B
01:02PM 41.9404 -95.6184 269° West 379 436 40,000  Level FlightAware ADS-B
01:02PM 41.9393 -95.6904 269° West 380 437 40,000  Level FlightAware ADS-B
01:03PM 41.9394 -95.6842 89° East 380 437 40,000  Level FlightAware ADS-B
01:04PM 41.9373 -95.8095 269° West 381 438 40,000  Level FlightAware ADS-B
01:04PM 41.9338 -96.0085 269° West 381 438 40,000  Level FlightAware ADS-B
01:05PM 41.9336 -96.0179 268° West 381 438 40,000  Level FlightAware ADS-B
01:06PM 41.9297 -96.2397 268° West 380 437 40,000  Level Minneapolis Center
01:07PM 41.9267 -96.3806 268° West 380 437 40,000  Level Minneapolis Center
01:08PM 41.9222 -96.5225 268° West 381 438 40,000  Level Minneapolis Center
01:09PM 41.9192 -96.6928 269° West 382 440 40,000  Level Minneapolis Center
01:10PM 41.9144 -96.8344 267° West 382 440 40,000  Level Minneapolis Center
01:11PM 41.9108 -96.9767 268° West 383 441 40,000  Level Minneapolis Center
01:12PM 41.9078 -97.1175 268° West 381 438 40,000  Level Minneapolis Center
01:13PM 41.9039 -97.2614 268° West 384 442 40,000  Level Minneapolis Center
01:14PM 41.8994 -97.4047 268° West 385 443 40,000  Level Minneapolis Center
01:15PM 41.8939 -97.5781 268° West 387 445 40,000  Level Minneapolis Center
01:16PM 41.8889 -97.7222 267° West 387 445 40,000  Level Minneapolis Center
01:17PM 41.8839 -97.8675 267° West 389 448 40,000  Level Minneapolis Center
01:19PM 41.8756 -98.0806 267° West 388 447 40,000  Level Denver Center
01:20PM 41.8725 -98.1672 267° West 389 448 40,000  Level Minneapolis Center
01:21PM 41.8678 -98.3119 268° West 390 449 40,000  Level Minneapolis Center
01:22PM 41.8617 -98.4572 267° West 390 449 40,000  Level Minneapolis Center
01:23PM 41.8550 -98.6014 266° West 391 450 40,000  Level Minneapolis Center
01:24PM 41.8478 -98.7733 267° West 388 447 40,000  Level Minneapolis Center
01:25PM 41.8425 -98.9172 267° West 388 447 40,000  Level Minneapolis Center
01:25PM 41.8403 -98.9758 267° West 388 447 40,000  Level Denver Center
01:26PM 41.8319 -99.1500 266° West 391 450 40,000  Level Denver Center
01:27PM 41.8244 -99.2942 266° West 390 449 40,000  Level Denver Center
01:28PM 41.8175 -99.4406 266° West 393 452 40,000  Level Denver Center
01:29PM 41.8133 -99.5283 266° West 394 453 40,000  Level Minneapolis Center
01:30PM 41.8064 -99.6761 266° West 397 457 40,000  Level Minneapolis Center
01:30PM 41.8014 -99.7522 265° West 398 458 40,000  Level Denver Center
01:31PM 41.7944 -99.8942 266° West 399 459 40,000  Level Denver Center
01:32PM 41.7856 -100.0617 266° West 403 464 40,000  Level Denver Center
01:33PM 41.7778 -100.2058 266° West 406 467 40,000  Level Denver Center
01:39PM 41.7272 -101.0629 266° West 412 474 40,000  Level FlightAware ADS-B (KEIK)
01:42PM 41.6987 -101.5031 265° West 410 472 40,000  Level FlightAware ADS-B (KEIK)
01:46PM 41.6573 -102.0985 265° West 406 467 40,000  Level FlightAware ADS-B (KEIK)
01:47PM 41.6466 -102.2446 264° West 406 467 40,000  Level FlightAware ADS-B (KEIK)
01:48PM 41.6347 -102.4052 264° West 406 467 40,000  Level FlightAware ADS-B (KEIK)
01:49PM 41.6234 -102.5555 264° West 403 464 40,000  Level FlightAware ADS-B (KEIK)
01:50PM 41.6143 -102.6745 264° West 405 466 40,000  Level FlightAware ADS-B (KEIK)
01:50PM 41.6086 -102.7475 264° West 406 467 40,000  Level FlightAware ADS-B (KEIK)
01:51PM 41.6012 -102.8421 264° West 407 468 40,000  Level FlightAware ADS-B (KEIK)
01:52PM 41.5863 -103.0293 264° West 408 470 40,000  Level FlightAware ADS-B (KEIK)
01:53PM 41.5779 -103.1348 264° West 410 472 40,000  Level FlightAware ADS-B (KEIK)
01:53PM 41.5711 -103.2177 264° West 411 473 40,000  Level FlightAware ADS-B (KEIK)
01:55PM 41.5569 -103.3878 264° West 412 474 40,000  Level FlightAware ADS-B (KEIK)
01:55PM 41.5488 -103.4847 264° West 414 476 40,000  Level FlightAware ADS-B (KEIK)
01:56PM 41.5356 -103.6395 264° West 417 480 40,000  Level FlightAware ADS-B (KEIK)
01:57PM 41.5265 -103.7459 263° West 421 484 40,000  Level FlightAware ADS-B (KEIK)
01:58PM 41.5187 -103.8345 263° West 424 488 40,000  Level FlightAware ADS-B (KEIK)
01:58PM 41.5090 -103.9460 263° West 426 490 40,000  Level FlightAware ADS-B (KEIK)
01:59PM 41.4987 -104.0612 263° West 428 493 40,000  Level FlightAware ADS-B (KEIK)
02:00PM 41.4869 -104.1918 263° West 428 493 40,000  Level FlightAware ADS-B (KEIK)
02:00PM 41.4774 -104.2956 263° West 427 491 40,000  Level FlightAware ADS-B (KEIK)
02:01PM 41.4677 -104.4014 263° West 426 490 40,000  Level FlightAware ADS-B (KEIK)
02:02PM 41.4623 -104.4594 263° West 423 487 40,000  Level FlightAware ADS-B (KEIK)
02:02PM 41.4518 -104.5719 263° West 422 486 40,000  Level FlightAware ADS-B (KLHQ)
02:04PM 41.4382 -104.7160 263° West 424 488 40,000  Level FlightAware ADS-B (KLHQ)
02:05PM 41.4226 -104.8783 263° West 421 484 40,000  Level FlightAware ADS-B (KLHQ)
02:05PM 41.4226 -104.8783 263° West 423 487 40,000 -1,380 Level FlightAware ADS-B (KLHQ)
02:06PM 41.3902 -105.2085 263° West 399 459 37,800 -2,040 Descending FlightAware ADS-B (KEIK)
02:07PM 41.3815 -105.2953 262° West 403 464 36,400 -1,380 Descending FlightAware ADS-B (KEIK)
02:08PM 41.3704 -105.4044 262° West 389 448 36,000 -300 Descending FlightAware ADS-B (KEIK)
02:08PM 41.3604 -105.5031 262° West 395 455 36,000 -480 Level FlightAware ADS-B (KEIK)
02:09PM 41.3498 -105.6059 262° West 421 484 35,400 -1,560 Descending FlightAware ADS-B (KEIK)
02:10PM 41.3358 -105.6995 259° West 436 502 34,100 -1,860 Descending FlightAware ADS-B (KEIK)
02:10PM 41.3141 -105.7643 246° West 451 519 33,400 -1,020 Descending FlightAware ADS-B (KEIK)
02:11PM 41.2660 -105.8624 237° Southwest 470 541 33,000 -960 Descending FlightAware ADS-B (KEIK)
02:11PM 41.2143 -105.9649 236° Southwest 474 545 32,100 -1,680 Descending FlightAware ADS-B (KEIK)
02:13PM 41.1137 -106.1629 236° Southwest 478 550 29,500 -2,040 Descending FlightAware ADS-B (KEIK)
02:14PM 41.0602 -106.2675 236° Southwest 477 549 28,000 -2,160 Descending FlightAware ADS-B (KEIK)
02:14PM 41.0120 -106.3613 236° Southwest 444 511 26,600 -2,040 Descending FlightAware ADS-B (KEIK)
02:15PM 40.9765 -106.4303 236° Southwest 405 466 25,500 -1,680 Descending FlightAware ADS-B (KEIK)
02:16PM 40.9147 -106.5475 236° Southwest 396 456 23,700 -2,040 Descending Denver Center
02:17PM 40.8511 -106.6711 236° Southwest 373 429 21,100 -2,460 Descending Denver Center
02:18PM 40.7994 -106.7711 236° Southwest 354 407 18,700 -1,980 Descending Denver Center
02:19PM 40.7400 -106.8858 236° Southwest 336 387 17,100 -840 Descending Denver Center
02:20PM 40.6906 -106.9808 236° Southwest 319 367 17,000 -60 Descending Denver Center
02:21PM 40.6444 -107.0700 236° Southwest 300 345 17,000 -120 Level Denver Center
02:22PM 40.6458 -107.1503 271° West 247 284 16,800 -360 Descending Denver Center
02:23PM 40.6700 -107.2528 287° West 263 303 16,300 -780 Descending Denver Center
02:24PM 40.6917 -107.3358 289° West 257 296 15,200 -1,380 Descending Denver Center
02:25PM 40.6689 -107.4242 251° West 247 284 13,500 -1,500 Descending Denver Center
02:26PM 40.6339 -107.4956 237° Southwest 246 283 12,100 -1,140 Descending Denver Center
02:27PM 40.5758 -107.5367 208° Southwest 248 285 11,200 -1,020 Descending Denver Center
02:28PM 40.5372 -107.4811 132° Southeast 233 268 10,000 -1,200 Descending Denver Center